createdAt,value
2019-03-18T00:00:07.737Z,95215.06
2019-03-18T00:02:35.089Z,95222.47
2019-03-18T00:05:02.475Z,95219.66
2019-03-18T00:07:29.823Z,95218.09
2019-03-18T00:09:57.157Z,95229.98
2019-03-18T00:12:24.542Z,95227.92
2019-03-18T00:15:00.752Z,95228.52
2019-03-18T00:17:21.235Z,95229.31
2019-03-18T00:19:48.829Z,95216.17
2019-03-18T00:22:16.264Z,95200.31
2019-03-18T00:24:43.928Z,95218.70
2019-03-18T00:27:11.562Z,95215.73
2019-03-18T00:29:39.081Z,95224.95
2019-03-18T00:32:06.382Z,95220.87
2019-03-18T00:34:33.701Z,95221.75
2019-03-18T00:37:01.076Z,95206.19
2019-03-18T00:39:28.443Z,95210.55
2019-03-18T00:41:56.263Z,95227.33
2019-03-18T00:44:23.670Z,95229.44
2019-03-18T00:46:51.012Z,95237.09
2019-03-18T00:49:18.337Z,95233.14
2019-03-18T00:51:45.705Z,95236.87
2019-03-18T00:54:13.092Z,95245.11
2019-03-18T00:56:40.423Z,95249.64
2019-03-18T00:59:07.767Z,95242.52
2019-03-18T01:01:35.863Z,95253.17
2019-03-18T01:04:03.206Z,95257.38
2019-03-18T01:06:30.547Z,95248.84
2019-03-18T01:08:57.914Z,95252.91
2019-03-18T01:11:25.268Z,95252.18
2019-03-18T01:13:52.608Z,95255.28
2019-03-18T01:16:20.022Z,95264.83
2019-03-18T01:18:47.328Z,95260.55
2019-03-18T01:21:14.684Z,95257.75
2019-03-18T01:23:42.056Z,95262.91
2019-03-18T01:26:09.415Z,95254.24
2019-03-18T01:28:36.814Z,95248.89
2019-03-18T01:31:04.138Z,95252.45
2019-03-18T01:33:31.490Z,95254.69
2019-03-18T01:35:58.858Z,95264.90
2019-03-18T01:38:26.168Z,95251.41
2019-03-18T01:40:53.514Z,95251.03
2019-03-18T01:43:20.910Z,95258.34
2019-03-18T01:45:48.329Z,95249.06
2019-03-18T01:48:15.641Z,95247.97
2019-03-18T01:50:42.979Z,95247.69
2019-03-18T01:53:10.348Z,95251.48
2019-03-18T01:55:37.686Z,95262.14
2019-03-18T01:58:04.978Z,95269.02
2019-03-18T02:00:32.352Z,95277.92
2019-03-18T02:02:59.710Z,95280.81
2019-03-18T02:05:27.061Z,95280.32
2019-03-18T02:07:54.400Z,95275.39
2019-03-18T02:10:21.729Z,95284.45
2019-03-18T02:12:49.063Z,95284.02
2019-03-18T02:15:16.430Z,95280.10
2019-03-18T02:17:43.828Z,95271.16
2019-03-18T02:20:11.246Z,95281.89
2019-03-18T02:22:38.570Z,95284.94
2019-03-18T02:25:05.940Z,95279.88
2019-03-18T02:27:33.223Z,95277.91
2019-03-18T02:30:00.588Z,95277.45
2019-03-18T02:32:27.862Z,95276.53
2019-03-18T02:34:55.164Z,95280.33
2019-03-18T02:37:22.514Z,95278.84
2019-03-18T02:39:49.814Z,95282.19
2019-03-18T02:42:17.153Z,95288.48
2019-03-18T02:44:44.465Z,95297.70
2019-03-18T02:47:11.783Z,95306.80
2019-03-18T02:49:39.057Z,95301.78
2019-03-18T02:52:06.497Z,95304.75
2019-03-18T02:54:33.791Z,95293.62
2019-03-18T02:57:01.090Z,95292.69
2019-03-18T02:59:28.435Z,95294.94
2019-03-18T03:01:55.987Z,95306.80
2019-03-18T03:04:23.506Z,95306.04
2019-03-18T03:06:50.829Z,95304.31
2019-03-18T03:09:18.129Z,95296.47
2019-03-18T03:11:45.509Z,95306.55
2019-03-18T03:14:12.831Z,95312.98
2019-03-18T03:16:40.168Z,95329.30
2019-03-18T03:19:07.459Z,95321.94
2019-03-18T03:21:34.800Z,95327.47
2019-03-18T03:24:02.145Z,95333.58
2019-03-18T03:26:29.525Z,95331.48
2019-03-18T03:28:56.905Z,95322.60
2019-03-18T03:31:24.205Z,95301.31
2019-03-18T03:33:51.582Z,95284.94
2019-03-18T03:36:18.952Z,95295.67
2019-03-18T03:38:46.299Z,95313.07
2019-03-18T03:41:17.536Z,95309.76
2019-03-18T03:43:42.758Z,95296.59
2019-03-18T03:46:10.098Z,95293.25
2019-03-18T03:48:37.460Z,95294.43
2019-03-18T03:51:04.791Z,95308.45
2019-03-18T03:53:32.149Z,95325.53
2019-03-18T03:56:00.652Z,95328.68
2019-03-18T03:58:28.109Z,95327.34
2019-03-18T04:00:55.470Z,95321.23
2019-03-18T04:03:37.783Z,95324.17
2019-03-18T04:05:51.917Z,95317.45
2019-03-18T04:08:19.344Z,95327.21
2019-03-18T04:10:46.687Z,95328.90
2019-03-18T04:13:13.989Z,95334.72
2019-03-18T04:15:41.293Z,95338.87
2019-03-18T04:18:08.607Z,95349.42
2019-03-18T04:20:35.905Z,95364.02
2019-03-18T04:23:03.207Z,95387.73
2019-03-18T04:25:30.524Z,95368.86
2019-03-18T04:27:58.836Z,95356.37
2019-03-18T04:30:26.188Z,95351.22
2019-03-18T04:32:53.546Z,95344.89
2019-03-18T04:35:20.839Z,95339.72
2019-03-18T04:37:48.152Z,95325.02
2019-03-18T04:40:15.492Z,95339.00
2019-03-18T04:42:42.784Z,95346.59
2019-03-18T04:45:10.278Z,95338.88
2019-03-18T04:47:37.648Z,95346.11
2019-03-18T04:50:05.534Z,95347.41
2019-03-18T04:52:32.864Z,95347.49
2019-03-18T04:55:00.357Z,95347.84
2019-03-18T04:57:27.750Z,95333.08
2019-03-18T04:59:55.040Z,95329.16
2019-03-18T05:02:22.428Z,95335.27
2019-03-18T05:04:49.728Z,95345.59
2019-03-18T05:07:17.107Z,95331.33
2019-03-18T05:09:44.423Z,95321.48
2019-03-18T05:12:11.847Z,95326.38
2019-03-18T05:14:39.127Z,95328.80
2019-03-18T05:17:06.408Z,95338.78
2019-03-18T05:19:33.707Z,95344.22
2019-03-18T05:22:01.066Z,95339.02
2019-03-18T05:24:28.406Z,95329.17
2019-03-18T05:26:55.724Z,95351.12
2019-03-18T05:29:23.105Z,95361.27
2019-03-18T05:31:51.857Z,95368.40
2019-03-18T05:34:19.384Z,95364.23
2019-03-18T05:36:46.723Z,95358.23
2019-03-18T05:39:14.038Z,95363.42
2019-03-18T05:41:41.403Z,95364.14
2019-03-18T05:44:08.735Z,95370.09
2019-03-18T05:46:36.019Z,95364.70
2019-03-18T05:49:03.388Z,95365.99
2019-03-18T05:51:30.707Z,95370.89
2019-03-18T05:53:58.119Z,95372.78
2019-03-18T05:56:25.758Z,95384.81
2019-03-18T05:58:53.067Z,95385.35
2019-03-18T06:01:20.446Z,95376.17
2019-03-18T06:03:47.767Z,95381.98
2019-03-18T06:06:15.485Z,95377.42
2019-03-18T06:08:42.838Z,95382.38
2019-03-18T06:11:10.203Z,95383.70
2019-03-18T06:13:41.000Z,95392.73
2019-03-18T06:16:08.428Z,95393.86
2019-03-18T06:18:35.757Z,95393.36
2019-03-18T06:21:03.096Z,95387.00
2019-03-18T06:23:30.398Z,95382.60
2019-03-18T06:25:57.786Z,95388.50
2019-03-18T06:28:25.083Z,95386.26
2019-03-18T06:30:52.384Z,95388.19
2019-03-18T06:33:19.744Z,95388.42
2019-03-18T06:35:47.049Z,95389.41
2019-03-18T06:38:14.408Z,95389.23
2019-03-18T06:40:41.704Z,95395.59
2019-03-18T06:43:08.997Z,95410.66
2019-03-18T06:45:36.354Z,95407.09
2019-03-18T06:48:05.180Z,95401.05
2019-03-18T06:50:32.596Z,95406.67
2019-03-18T06:52:59.944Z,95410.95
2019-03-18T06:55:27.298Z,95410.06
2019-03-18T06:57:54.589Z,95412.20
2019-03-18T07:00:21.887Z,95416.87
2019-03-18T07:02:49.468Z,95424.35
2019-03-18T07:05:16.776Z,95423.28
2019-03-18T07:07:44.045Z,95417.02
2019-03-18T07:10:11.478Z,95410.56
2019-03-18T07:12:38.765Z,95423.73
2019-03-18T07:15:06.141Z,95429.01
2019-03-18T07:17:33.460Z,95422.63
2019-03-18T07:20:00.794Z,95421.06
2019-03-18T07:22:28.184Z,95412.83
2019-03-18T07:24:55.564Z,95415.58
2019-03-18T07:27:22.947Z,95413.74
2019-03-18T07:29:50.267Z,95412.45
2019-03-18T07:32:17.566Z,95420.56
2019-03-18T07:34:44.944Z,95438.68
2019-03-18T07:37:12.276Z,95428.80
2019-03-18T07:39:39.587Z,95432.41
2019-03-18T07:42:06.866Z,95427.64
2019-03-18T07:44:34.206Z,95433.78
2019-03-18T07:47:01.596Z,95434.77
2019-03-18T07:49:28.976Z,95435.33
2019-03-18T07:51:56.324Z,95441.71
2019-03-18T07:54:32.757Z,95447.38
2019-03-18T07:56:53.349Z,95445.80
2019-03-18T07:59:20.724Z,95458.75
2019-03-18T08:01:48.065Z,95457.53
2019-03-18T08:04:15.428Z,95475.13
2019-03-18T08:06:42.771Z,95470.95
2019-03-18T08:09:10.272Z,95464.72
2019-03-18T08:11:37.687Z,95467.89
2019-03-18T08:14:05.013Z,95481.19
2019-03-18T08:16:32.356Z,95490.02
2019-03-18T08:18:59.691Z,95496.75
2019-03-18T08:21:26.988Z,95499.66
2019-03-18T08:23:54.328Z,95500.97
2019-03-18T08:26:21.664Z,95491.06
2019-03-18T08:28:48.974Z,95497.37
2019-03-18T08:31:16.275Z,95496.56
2019-03-18T08:33:43.644Z,95503.25
2019-03-18T08:36:11.238Z,95502.91
2019-03-18T08:38:38.572Z,95505.32
2019-03-18T08:41:05.849Z,95506.19
2019-03-18T08:43:33.156Z,95508.36
2019-03-18T08:46:00.457Z,95501.20
2019-03-18T08:48:27.765Z,95504.45
2019-03-18T08:50:55.051Z,95507.91
2019-03-18T08:53:22.323Z,95514.44
2019-03-18T08:55:49.673Z,95515.51
2019-03-18T08:58:16.934Z,95517.70
2019-03-18T09:00:44.281Z,95512.35
2019-03-18T09:03:11.554Z,95515.44
2019-03-18T09:05:38.867Z,95518.61
2019-03-18T09:08:06.542Z,95512.13
2019-03-18T09:10:33.851Z,95508.34
2019-03-18T09:13:01.135Z,95511.86
2019-03-18T09:15:28.430Z,95500.67
2019-03-18T09:17:55.715Z,95496.09
2019-03-18T09:20:22.977Z,95505.02
2019-03-18T09:22:50.257Z,95507.91
2019-03-18T09:25:17.518Z,95502.59
2019-03-18T09:27:44.841Z,95496.65
2019-03-18T09:30:12.274Z,95501.46
2019-03-18T09:32:39.629Z,95500.16
2019-03-18T09:35:06.993Z,95501.23
2019-03-18T09:37:36.856Z,95513.88
2019-03-18T09:40:04.724Z,95516.34
2019-03-18T09:42:32.006Z,95513.52
2019-03-18T09:44:59.317Z,95517.32
2019-03-18T09:47:26.614Z,95511.63
2019-03-18T09:49:53.901Z,95498.30
2019-03-18T09:52:21.237Z,95497.95
2019-03-18T09:54:48.530Z,95508.78
2019-03-18T09:57:25.290Z,95511.52
2019-03-18T09:59:45.088Z,95514.19
2019-03-18T10:02:12.426Z,95515.97
2019-03-18T10:04:39.721Z,95521.16
2019-03-18T10:07:07.030Z,95520.98
2019-03-18T10:09:37.343Z,95524.72
2019-03-18T10:12:04.645Z,95520.45
2019-03-18T10:14:31.946Z,95525.70
2019-03-18T10:17:09.008Z,95525.23
2019-03-18T10:19:33.414Z,95519.81
2019-03-18T10:21:57.719Z,95519.07
2019-03-18T10:24:25.003Z,95515.34
2019-03-18T10:26:55.216Z,95519.43
2019-03-18T10:29:22.494Z,95522.25
2019-03-18T10:31:49.825Z,95524.22
2019-03-18T10:34:17.200Z,95518.63
2019-03-18T10:36:44.454Z,95505.02
2019-03-18T10:39:11.778Z,95511.28
2019-03-18T10:41:39.065Z,95518.23
2019-03-18T10:44:06.375Z,95527.39
2019-03-18T10:46:33.673Z,95519.40
2019-03-18T10:49:01.048Z,95519.70
2019-03-18T10:51:28.383Z,95524.06
2019-03-18T10:53:55.660Z,95523.45
2019-03-18T10:56:22.971Z,95524.39
2019-03-18T10:58:50.330Z,95525.14
2019-03-18T11:01:17.727Z,95521.59
2019-03-18T11:03:45.060Z,95530.58
2019-03-18T11:06:12.513Z,95535.28
2019-03-18T11:08:39.874Z,95540.69
2019-03-18T11:11:07.183Z,95544.31
2019-03-18T11:13:34.520Z,95550.98
2019-03-18T11:16:02.284Z,95558.60
2019-03-18T11:18:29.560Z,95568.28
2019-03-18T11:20:56.919Z,95578.30
2019-03-18T11:23:24.316Z,95602.97
2019-03-18T11:25:51.817Z,95624.83
2019-03-18T11:28:19.157Z,95630.48
2019-03-18T11:30:46.588Z,95625.11
2019-03-18T11:33:13.936Z,95614.84
2019-03-18T11:35:41.250Z,95604.34
2019-03-18T11:38:08.619Z,95597.66
2019-03-18T11:40:35.905Z,95600.98
2019-03-18T11:43:05.459Z,95595.80
2019-03-18T11:45:32.846Z,95590.41
2019-03-18T11:48:00.158Z,95577.06
2019-03-18T11:50:27.461Z,95568.41
2019-03-18T11:52:54.868Z,95558.41
2019-03-18T11:55:22.290Z,95555.24
2019-03-18T11:57:49.644Z,95560.92
2019-03-18T12:00:17.125Z,95556.77
2019-03-18T12:02:44.528Z,95556.30
2019-03-18T12:05:13.626Z,95562.58
2019-03-18T12:07:41.017Z,95565.27
2019-03-18T12:10:10.288Z,95566.78
2019-03-18T12:12:37.690Z,95555.66
2019-03-18T12:15:05.838Z,95555.34
2019-03-18T12:17:33.167Z,95548.41
2019-03-18T12:20:00.537Z,95549.59
2019-03-18T12:22:27.979Z,95552.81
2019-03-18T12:24:55.325Z,95549.86
2019-03-18T12:27:22.659Z,95547.84
2019-03-18T12:29:50.050Z,95552.61
2019-03-18T12:32:17.432Z,95540.33
2019-03-18T12:34:44.807Z,95533.41
2019-03-18T12:37:12.211Z,95535.14
2019-03-18T12:39:39.549Z,95533.36
2019-03-18T12:42:06.989Z,95531.98
2019-03-18T12:44:34.304Z,95525.71
2019-03-18T12:47:01.652Z,95529.23
2019-03-18T12:49:29.040Z,95526.36
2019-03-18T12:51:56.452Z,95530.17
2019-03-18T12:54:23.848Z,95525.92
2019-03-18T12:56:51.204Z,95517.73
2019-03-18T12:59:20.357Z,95517.31
2019-03-18T13:01:47.799Z,95510.64
2019-03-18T13:04:15.246Z,95513.28
2019-03-18T13:06:42.572Z,95513.59
2019-03-18T13:09:09.891Z,95517.89
2019-03-18T13:11:37.216Z,95517.27
2019-03-18T13:14:04.712Z,95526.70
2019-03-18T13:16:32.056Z,95516.43
2019-03-18T13:18:59.437Z,95516.96
2019-03-18T13:21:26.828Z,95525.24
2019-03-18T13:23:54.189Z,95526.08
2019-03-18T13:26:21.530Z,95531.12
2019-03-18T13:28:48.887Z,95524.84
2019-03-18T13:31:16.356Z,95534.84
2019-03-18T13:33:43.704Z,95516.53
2019-03-18T13:36:11.069Z,95521.58
2019-03-18T13:38:38.490Z,95524.45
2019-03-18T13:41:05.829Z,95516.86
2019-03-18T13:43:33.205Z,95512.81
2019-03-18T13:46:00.578Z,95518.97
2019-03-18T13:48:27.947Z,95507.78
2019-03-18T13:50:55.304Z,95502.38
2019-03-18T13:53:22.646Z,95496.87
2019-03-18T13:55:50.010Z,95504.37
2019-03-18T13:58:17.452Z,95510.92
2019-03-18T14:00:45.253Z,95493.70
2019-03-18T14:03:12.596Z,95498.66
2019-03-18T14:05:39.958Z,95499.50
2019-03-18T14:08:07.340Z,95489.84
2019-03-18T14:10:34.759Z,95501.27
2019-03-18T14:13:02.407Z,95497.81
2019-03-18T14:15:29.739Z,95502.47
2019-03-18T14:17:57.087Z,95493.52
2019-03-18T14:20:24.426Z,95495.03
2019-03-18T14:22:51.908Z,95496.50
2019-03-18T14:25:19.266Z,95496.03
2019-03-18T14:27:46.661Z,95488.59
2019-03-18T14:30:15.023Z,95497.86
2019-03-18T14:32:42.440Z,95494.27
2019-03-18T14:35:10.173Z,95500.12
2019-03-18T14:37:37.672Z,95492.34
2019-03-18T14:40:06.929Z,95492.55
2019-03-18T14:42:34.743Z,95486.88
2019-03-18T14:45:02.171Z,95482.30
2019-03-18T14:47:29.567Z,95486.80
2019-03-18T14:49:57.088Z,95480.88
2019-03-18T14:52:24.547Z,95484.92
2019-03-18T14:54:51.824Z,95484.94
2019-03-18T14:57:19.272Z,95477.39
2019-03-18T14:59:46.797Z,95484.18
2019-03-18T15:02:14.324Z,95489.22
2019-03-18T15:04:41.751Z,95498.73
2019-03-18T15:07:09.640Z,95496.23
2019-03-18T15:09:37.257Z,95503.66
2019-03-18T15:12:04.823Z,95510.31
2019-03-18T15:14:32.323Z,95517.83
2019-03-18T15:17:02.573Z,95516.73
2019-03-18T15:19:30.171Z,95521.38
2019-03-18T15:21:58.822Z,95515.48
2019-03-18T15:24:26.525Z,95518.20
2019-03-18T15:26:54.044Z,95517.84
2019-03-18T15:29:21.418Z,95515.33
2019-03-18T15:31:48.803Z,95537.41
2019-03-18T15:34:16.224Z,95538.78
2019-03-18T15:36:43.731Z,95539.08
2019-03-18T15:39:11.396Z,95545.91
2019-03-18T15:41:38.964Z,95548.89
2019-03-18T15:44:06.572Z,95550.84
2019-03-18T15:46:34.186Z,95555.87
2019-03-18T15:49:03.061Z,95555.59
2019-03-18T15:51:31.811Z,95563.23
2019-03-18T15:53:59.539Z,95570.83
2019-03-18T15:56:27.111Z,95576.08
2019-03-18T15:58:55.217Z,95583.77
2019-03-18T16:01:22.828Z,95590.34
2019-03-18T16:03:50.583Z,95589.02
2019-03-18T16:06:18.188Z,95587.42
2019-03-18T16:08:45.786Z,95596.44
2019-03-18T16:11:13.472Z,95599.53
2019-03-18T16:13:41.136Z,95600.50
2019-03-18T16:16:08.743Z,95606.45
2019-03-18T16:18:36.527Z,95610.48
2019-03-18T16:21:04.377Z,95609.61
2019-03-18T16:23:31.962Z,95615.02
2019-03-18T16:25:59.614Z,95623.16
2019-03-18T16:28:27.254Z,95625.89
2019-03-18T16:30:54.987Z,95635.20
2019-03-18T16:33:22.734Z,95637.64
2019-03-18T16:35:50.524Z,95627.95
2019-03-18T16:38:18.235Z,95636.91
2019-03-18T16:40:45.895Z,95639.91
2019-03-18T16:43:15.334Z,95648.55
2019-03-18T16:45:42.947Z,95648.78
2019-03-18T16:48:10.637Z,95653.83
2019-03-18T16:50:38.445Z,95650.99
2019-03-18T16:53:06.215Z,95656.06
2019-03-18T16:55:33.865Z,95661.47
2019-03-18T16:58:01.464Z,95662.86
2019-03-18T17:00:29.179Z,95669.47
2019-03-18T17:02:56.804Z,95668.92
2019-03-18T17:05:24.502Z,95670.36
2019-03-18T17:07:54.175Z,95665.05
2019-03-18T17:10:21.785Z,95675.31
2019-03-18T17:12:49.424Z,95678.95
2019-03-18T17:15:17.306Z,95682.05
2019-03-18T17:17:44.963Z,95685.42
2019-03-18T17:20:12.861Z,95683.56
2019-03-18T17:22:48.597Z,95683.39
2019-03-18T17:25:12.830Z,95690.40
2019-03-18T17:27:40.502Z,95688.29
2019-03-18T17:30:11.770Z,95687.68
2019-03-18T17:32:39.548Z,95697.98
2019-03-18T17:35:07.348Z,95698.30
2019-03-18T17:37:35.383Z,95698.19
2019-03-18T17:40:03.315Z,95705.86
2019-03-18T17:42:31.148Z,95713.95
2019-03-18T17:44:58.903Z,95717.09
2019-03-18T17:47:26.689Z,95727.94
2019-03-18T17:49:54.475Z,95729.55
2019-03-18T17:52:22.233Z,95727.56
2019-03-18T17:54:50.781Z,95725.72
2019-03-18T17:57:18.497Z,95712.36
2019-03-18T17:59:46.108Z,95714.57
2019-03-18T18:02:13.927Z,95720.89
2019-03-18T18:04:41.588Z,95726.44
2019-03-18T18:07:09.239Z,95739.50
2019-03-18T18:09:36.944Z,95740.63
2019-03-18T18:12:07.126Z,95744.87
2019-03-18T18:14:34.811Z,95760.35
2019-03-18T18:17:02.631Z,95760.86
2019-03-18T18:19:30.288Z,95772.52
2019-03-18T18:21:59.410Z,95773.71
2019-03-18T18:24:27.137Z,95783.08
2019-03-18T18:26:54.796Z,95782.58
2019-03-18T18:29:22.523Z,95777.50
2019-03-18T18:31:50.204Z,95779.16
2019-03-18T18:34:17.864Z,95780.50
2019-03-18T18:36:45.644Z,95788.88
2019-03-18T18:39:13.827Z,95793.10
2019-03-18T18:41:41.903Z,95783.25
2019-03-18T18:44:09.670Z,95795.45
2019-03-18T18:46:40.906Z,95802.72
2019-03-18T18:49:08.559Z,95799.68
2019-03-18T18:51:36.465Z,95801.16
2019-03-18T18:54:04.445Z,95808.51
2019-03-18T18:56:32.297Z,95809.73
2019-03-18T18:58:59.960Z,95804.83
2019-03-18T19:01:27.744Z,95806.41
2019-03-18T19:03:55.525Z,95818.77
2019-03-18T19:06:23.359Z,95818.00
2019-03-18T19:08:51.361Z,95816.52
2019-03-18T19:11:19.188Z,95823.15
2019-03-18T19:13:46.853Z,95830.45
2019-03-18T19:16:15.865Z,95828.50
2019-03-18T19:18:44.744Z,95835.53
2019-03-18T19:21:12.577Z,95828.58
2019-03-18T19:23:40.459Z,95828.80
2019-03-18T19:26:08.744Z,95836.72
2019-03-18T19:28:36.482Z,95839.33
2019-03-18T19:31:04.260Z,95838.39
2019-03-18T19:33:32.115Z,95842.47
2019-03-18T19:36:00.075Z,95837.25
2019-03-18T19:38:27.949Z,95844.69
2019-03-18T19:40:55.738Z,95851.08
2019-03-18T19:43:24.128Z,95861.34
2019-03-18T19:45:53.083Z,95856.15
2019-03-18T19:48:20.750Z,95861.94
2019-03-18T19:50:48.981Z,95863.92
2019-03-18T19:53:16.845Z,95865.34
2019-03-18T19:55:44.702Z,95867.77
2019-03-18T19:58:14.379Z,95873.39
2019-03-18T20:00:42.050Z,95871.38
2019-03-18T20:03:10.169Z,95874.03
2019-03-18T20:05:37.830Z,95872.49
2019-03-18T20:08:05.609Z,95877.25
2019-03-18T20:10:33.702Z,95867.38
2019-03-18T20:13:04.815Z,95878.37
2019-03-18T20:15:32.154Z,95880.29
2019-03-18T20:18:00.183Z,95877.91
2019-03-18T20:20:27.907Z,95876.30
2019-03-18T20:22:56.144Z,95872.28
2019-03-18T20:25:24.097Z,95876.39
2019-03-18T20:27:51.957Z,95876.63
2019-03-18T20:30:19.919Z,95875.81
2019-03-18T20:32:47.830Z,95873.25
2019-03-18T20:35:15.762Z,95862.89
2019-03-18T20:37:43.631Z,95864.13
2019-03-18T20:40:12.289Z,95879.36
2019-03-18T20:42:40.037Z,95877.55
2019-03-18T20:45:10.470Z,95879.66
2019-03-18T20:47:38.455Z,95882.52
2019-03-18T20:50:09.101Z,95880.75
2019-03-18T20:52:36.933Z,95884.64
2019-03-18T20:55:05.711Z,95889.36
2019-03-18T20:57:33.426Z,95891.40
2019-03-18T21:00:01.257Z,95891.20
2019-03-18T21:02:29.038Z,95897.22
2019-03-18T21:04:56.664Z,95896.66
2019-03-18T21:07:24.358Z,95897.03
2019-03-18T21:09:52.222Z,95896.05
2019-03-18T21:12:20.067Z,95905.31
2019-03-18T21:14:47.761Z,95898.95
2019-03-18T21:17:15.894Z,95907.08
2019-03-18T21:19:43.510Z,95906.64
2019-03-18T21:22:11.169Z,95905.08
2019-03-18T21:24:39.007Z,95909.95
2019-03-18T21:27:06.646Z,95906.83
2019-03-18T21:29:34.392Z,95909.77
2019-03-18T21:32:02.507Z,95923.20
2019-03-18T21:34:30.341Z,95922.70
2019-03-18T21:36:57.871Z,95927.11
2019-03-18T21:39:25.596Z,95932.33
2019-03-18T21:41:53.294Z,95926.98
2019-03-18T21:44:20.863Z,95923.89
2019-03-18T21:46:48.436Z,95911.58
2019-03-18T21:49:16.049Z,95903.23
2019-03-18T21:51:43.629Z,95894.91
2019-03-18T21:54:11.153Z,95902.22
2019-03-18T21:56:38.577Z,95905.61
2019-03-18T21:59:06.171Z,95912.68
2019-03-18T22:01:33.521Z,95911.25
2019-03-18T22:04:00.908Z,95920.55
2019-03-18T22:06:28.304Z,95922.27
2019-03-18T22:08:55.671Z,95924.68
2019-03-18T22:11:23.063Z,95930.00
2019-03-18T22:13:50.427Z,95935.32
2019-03-18T22:16:17.748Z,95931.48
2019-03-18T22:18:45.120Z,95929.16
2019-03-18T22:21:12.480Z,95927.41
2019-03-18T22:23:39.839Z,95929.28
2019-03-18T22:26:07.143Z,95931.97
2019-03-18T22:28:34.530Z,95933.19
2019-03-18T22:31:01.872Z,95936.11
2019-03-18T22:33:29.265Z,95937.56
2019-03-18T22:35:56.563Z,95940.26
2019-03-18T22:38:25.147Z,95946.01
2019-03-18T22:40:52.471Z,95948.13
2019-03-18T22:43:19.930Z,95945.37
2019-03-18T22:45:47.390Z,95942.39
2019-03-18T22:48:14.707Z,95941.95
2019-03-18T22:50:42.093Z,95940.13
2019-03-18T22:53:09.414Z,95942.53
2019-03-18T22:55:36.795Z,95939.97
2019-03-18T22:58:04.223Z,95944.48
2019-03-18T23:00:43.833Z,95953.64
2019-03-18T23:03:11.137Z,95944.71
2019-03-18T23:05:38.627Z,95939.63
2019-03-18T23:08:05.946Z,95945.13
2019-03-18T23:10:33.263Z,95939.48
2019-03-18T23:13:00.576Z,95941.67
2019-03-18T23:15:27.873Z,95946.28
2019-03-18T23:17:55.577Z,95951.69
2019-03-18T23:20:22.904Z,95943.23
2019-03-18T23:22:50.175Z,95944.59
2019-03-18T23:25:17.524Z,95943.59
2019-03-18T23:27:44.813Z,95942.97
2019-03-18T23:30:12.121Z,95944.73
2019-03-18T23:32:39.470Z,95943.48
2019-03-18T23:35:06.864Z,95941.16
2019-03-18T23:37:34.212Z,95948.44
2019-03-18T23:40:01.558Z,95953.86
2019-03-18T23:42:28.923Z,95944.44
2019-03-18T23:44:56.257Z,95946.09
2019-03-18T23:47:23.571Z,95945.49
2019-03-18T23:49:50.886Z,95937.91
2019-03-18T23:52:18.203Z,95940.56
2019-03-18T23:54:45.545Z,95944.95
2019-03-18T23:57:12.863Z,95955.78
2019-03-18T23:59:40.191Z,95954.06
